createdAt,value
2023-02-12T00:01:13.159Z,6.76
2023-02-12T00:03:41.617Z,7.64
2023-02-12T00:06:10.163Z,7.20
2023-02-12T00:08:38.263Z,7.80
2023-02-12T00:11:14.152Z,7.86
2023-02-12T00:13:41.980Z,7.93
2023-02-12T00:16:11.785Z,7.27
2023-02-12T00:18:39.493Z,7.12
2023-02-12T00:21:08.929Z,6.83
2023-02-12T00:23:38.945Z,7.35
2023-02-12T00:26:11.547Z,6.10
2023-02-12T00:28:41.206Z,6.51
2023-02-12T00:31:12.544Z,7.24
2023-02-12T00:33:40.856Z,6.65
2023-02-12T00:36:09.569Z,6.93
2023-02-12T00:38:37.015Z,6.40
2023-02-12T00:41:04.958Z,6.57
2023-02-12T00:43:32.414Z,6.46
2023-02-12T00:46:01.240Z,6.11
2023-02-12T00:48:29.084Z,6.23
2023-02-12T00:50:56.568Z,6.40
2023-02-12T00:53:23.990Z,6.88
2023-02-12T00:55:51.651Z,6.05
2023-02-12T00:58:19.213Z,7.02
2023-02-12T01:00:46.741Z,6.79
2023-02-12T01:03:15.122Z,6.43
2023-02-12T01:05:42.914Z,6.63
2023-02-12T01:08:14.569Z,6.34
2023-02-12T01:10:43.926Z,7.07
2023-02-12T01:13:15.273Z,6.47
2023-02-12T01:15:43.429Z,6.24
2023-02-12T01:18:11.582Z,5.85
2023-02-12T01:20:40.160Z,6.15
2023-02-12T01:23:08.581Z,6.28
2023-02-12T01:25:35.994Z,6.24
2023-02-12T01:28:03.493Z,6.47
2023-02-12T01:30:31.206Z,6.15
2023-02-12T01:32:58.730Z,6.77
2023-02-12T01:35:26.166Z,6.77
2023-02-12T01:37:55.272Z,6.61
2023-02-12T01:40:23.678Z,6.24
2023-02-12T01:42:51.151Z,6.43
2023-02-12T01:45:41.159Z,6.20
2023-02-12T01:48:09.096Z,5.81
2023-02-12T01:50:36.781Z,6.22
2023-02-12T01:53:05.335Z,6.54
2023-02-12T01:55:32.889Z,6.58
2023-02-12T01:58:00.685Z,6.12
2023-02-12T02:00:28.692Z,6.25
2023-02-12T02:03:00.426Z,6.59
2023-02-12T02:05:46.900Z,6.24
2023-02-12T02:08:14.665Z,6.44
2023-02-12T02:10:42.056Z,6.16
2023-02-12T02:13:27.952Z,6.36
2023-02-12T02:16:00.429Z,7.02
2023-02-12T02:18:56.171Z,7.07
2023-02-12T02:21:41.020Z,7.54
2023-02-12T02:24:31.615Z,6.71
2023-02-12T02:27:39.932Z,6.73
2023-02-12T02:30:12.733Z,7.70
2023-02-12T02:32:50.777Z,7.99
2023-02-12T02:35:28.689Z,7.29
2023-02-12T02:38:17.989Z,6.02
2023-02-12T02:40:55.149Z,6.46
2023-02-12T02:43:33.166Z,7.24
2023-02-12T02:46:36.335Z,7.01
2023-02-12T02:49:07.941Z,7.55
2023-02-12T02:51:40.870Z,7.35
2023-02-12T02:54:38.656Z,7.15
2023-02-12T02:57:09.867Z,6.36
2023-02-12T02:59:42.911Z,7.58
2023-02-12T03:02:37.517Z,6.99
2023-02-12T03:05:10.351Z,8.06
2023-02-12T03:07:52.448Z,7.36
2023-02-12T03:10:23.752Z,6.48
2023-02-12T03:13:00.932Z,6.79
2023-02-12T03:15:34.259Z,6.64
2023-02-12T03:18:05.765Z,6.92
2023-02-12T03:20:46.274Z,7.25
2023-02-12T03:23:17.592Z,6.88
2023-02-12T03:25:57.588Z,6.48
2023-02-12T03:28:33.809Z,6.88
2023-02-12T03:31:08.183Z,6.14
2023-02-12T03:33:43.257Z,6.80
2023-02-12T03:36:21.698Z,7.93
2023-02-12T03:38:53.338Z,6.36
2023-02-12T03:41:26.371Z,6.95
2023-02-12T03:43:56.576Z,6.08
2023-02-12T03:46:59.915Z,5.38
2023-02-12T03:49:38.552Z,5.96
2023-02-12T03:52:06.266Z,6.64
2023-02-12T03:54:33.863Z,8.17
2023-02-12T03:57:11.112Z,6.43
2023-02-12T03:59:39.916Z,6.25
2023-02-12T04:02:07.931Z,5.20
2023-02-12T04:04:36.452Z,6.84
2023-02-12T04:07:03.929Z,7.89
2023-02-12T04:09:31.900Z,6.57
2023-02-12T04:12:21.812Z,4.50
2023-02-12T04:15:07.905Z,4.20
2023-02-12T04:18:00.842Z,4.48
2023-02-12T04:20:42.740Z,6.94
2023-02-12T04:23:41.081Z,4.45
2023-02-12T04:26:23.138Z,4.23
2023-02-12T04:29:09.180Z,5.57
2023-02-12T04:31:42.522Z,4.55
2023-02-12T04:34:20.599Z,4.75
2023-02-12T04:36:58.283Z,6.73
2023-02-12T04:39:27.875Z,5.93
2023-02-12T04:41:58.815Z,5.39
2023-02-12T04:44:30.915Z,5.04
2023-02-12T04:46:58.849Z,4.59
2023-02-12T04:49:26.927Z,5.52
2023-02-12T04:51:54.522Z,5.80
2023-02-12T04:54:23.751Z,3.95
2023-02-12T04:56:51.485Z,4.09
2023-02-12T04:59:19.034Z,4.03
2023-02-12T05:01:46.897Z,3.89
2023-02-12T05:04:18.302Z,4.82
2023-02-12T05:06:46.149Z,4.28
2023-02-12T05:09:16.607Z,4.24
2023-02-12T05:11:44.581Z,3.99
2023-02-12T05:14:12.304Z,3.86
2023-02-12T05:16:39.749Z,3.83
2023-02-12T05:19:09.536Z,4.34
2023-02-12T05:21:38.098Z,3.91
2023-02-12T05:24:05.863Z,4.04
2023-02-12T05:26:33.891Z,3.57
2023-02-12T05:29:01.369Z,3.60
2023-02-12T05:31:28.855Z,3.55
2023-02-12T05:33:56.576Z,3.71
2023-02-12T05:36:24.488Z,3.53
2023-02-12T05:38:53.035Z,4.47
2023-02-12T05:41:23.710Z,3.64
2023-02-12T05:43:51.867Z,3.30
2023-02-12T05:46:23.346Z,3.40
2023-02-12T05:48:51.012Z,3.17
2023-02-12T05:51:24.167Z,3.52
2023-02-12T05:53:53.913Z,3.70
2023-02-12T05:56:23.672Z,3.62
2023-02-12T05:58:59.030Z,3.61
2023-02-12T06:01:29.011Z,3.81
2023-02-12T06:03:56.790Z,4.01
2023-02-12T06:06:26.652Z,4.72
2023-02-12T06:08:54.229Z,4.16
2023-02-12T06:11:22.056Z,5.21
2023-02-12T06:13:49.694Z,5.49
2023-02-12T06:16:27.934Z,6.30
2023-02-12T06:18:56.579Z,5.11
2023-02-12T06:21:25.802Z,3.90
2023-02-12T06:23:53.576Z,3.94
2023-02-12T06:26:21.589Z,3.83
2023-02-12T06:28:49.611Z,4.15
2023-02-12T06:31:21.563Z,4.83
2023-02-12T06:33:50.592Z,3.75
2023-02-12T06:36:18.701Z,4.44
2023-02-12T06:38:46.380Z,5.20
2023-02-12T06:41:14.152Z,4.70
2023-02-12T06:43:41.535Z,5.11
2023-02-12T06:46:09.201Z,5.01
2023-02-12T06:48:36.946Z,4.97
2023-02-12T06:51:08.428Z,6.02
2023-02-12T06:53:36.108Z,6.39
2023-02-12T06:56:11.468Z,5.28
2023-02-12T06:58:46.813Z,5.71
2023-02-12T07:01:19.750Z,6.01
2023-02-12T07:03:58.762Z,5.83
2023-02-12T07:06:27.414Z,6.53
2023-02-12T07:08:55.828Z,6.97
2023-02-12T07:11:28.208Z,5.96
2023-02-12T07:13:55.865Z,6.33
2023-02-12T07:16:23.390Z,6.85
2023-02-12T07:18:51.093Z,7.03
2023-02-12T07:21:22.035Z,7.79
2023-02-12T07:23:51.782Z,8.10
2023-02-12T07:26:20.933Z,7.98
2023-02-12T07:28:50.016Z,7.55
2023-02-12T07:31:22.672Z,8.19
2023-02-12T07:33:54.298Z,7.71
2023-02-12T07:36:22.159Z,8.23
2023-02-12T07:38:49.985Z,8.59
2023-02-12T07:41:43.673Z,8.59
2023-02-12T07:44:12.193Z,8.57
2023-02-12T07:46:42.395Z,7.36
2023-02-12T07:49:14.111Z,7.95
2023-02-12T07:51:42.024Z,8.38
2023-02-12T07:54:10.848Z,8.26
2023-02-12T07:56:39.698Z,8.34
2023-02-12T07:59:11.097Z,7.98
2023-02-12T08:01:52.546Z,8.30
2023-02-12T08:04:24.954Z,8.06
2023-02-12T08:06:54.928Z,7.73
2023-02-12T08:09:27.684Z,7.50
2023-02-12T08:11:55.077Z,8.16
2023-02-12T08:14:23.015Z,7.00
2023-02-12T08:16:50.883Z,7.43
2023-02-12T08:19:22.735Z,7.62
2023-02-12T08:21:54.865Z,8.13
2023-02-12T08:24:22.732Z,7.35
2023-02-12T08:26:50.550Z,7.88
2023-02-12T08:29:21.075Z,7.17
2023-02-12T08:31:49.787Z,7.94
2023-02-12T08:34:34.551Z,7.66
2023-02-12T08:37:05.135Z,7.65
2023-02-12T08:39:32.571Z,8.00
2023-02-12T08:42:01.471Z,7.92
2023-02-12T08:44:29.475Z,7.16
2023-02-12T08:46:56.912Z,8.42
2023-02-12T08:49:26.825Z,8.96
2023-02-12T08:51:55.980Z,7.47
2023-02-12T08:54:25.852Z,8.14
2023-02-12T08:56:57.788Z,8.61
2023-02-12T08:59:25.526Z,8.66
2023-02-12T09:01:53.665Z,9.54
2023-02-12T09:04:26.895Z,8.69
2023-02-12T09:06:55.265Z,8.59
2023-02-12T09:09:22.683Z,9.04
2023-02-12T09:11:50.184Z,9.42
2023-02-12T09:14:23.606Z,8.57
2023-02-12T09:16:53.218Z,7.56
2023-02-12T09:19:20.837Z,7.17
2023-02-12T09:21:51.438Z,9.57
2023-02-12T09:24:19.947Z,8.97
2023-02-12T09:26:47.461Z,9.82
2023-02-12T09:29:14.676Z,9.57
2023-02-12T09:31:41.917Z,10.19
2023-02-12T09:34:09.482Z,8.94
2023-02-12T09:36:36.740Z,9.13
2023-02-12T09:39:05.585Z,9.27
2023-02-12T09:41:38.252Z,8.51
2023-02-12T09:44:07.602Z,10.38
2023-02-12T09:46:38.159Z,10.03
2023-02-12T09:49:31.356Z,9.06
2023-02-12T09:52:00.028Z,9.20
2023-02-12T09:54:34.407Z,10.41
2023-02-12T09:57:06.880Z,11.17
2023-02-12T09:59:42.028Z,12.32
2023-02-12T10:02:16.167Z,10.23
2023-02-12T10:04:58.696Z,10.60
2023-02-12T10:07:40.332Z,12.13
2023-02-12T10:10:32.822Z,12.90
2023-02-12T10:13:05.012Z,12.92
2023-02-12T10:15:39.529Z,13.10
2023-02-12T10:18:25.637Z,13.43
2023-02-12T10:21:05.646Z,13.29
2023-02-12T10:23:51.771Z,12.07
2023-02-12T10:26:26.049Z,10.67
2023-02-12T10:28:53.900Z,12.23
2023-02-12T10:31:33.055Z,12.98
2023-02-12T10:34:00.730Z,11.26
2023-02-12T10:36:49.317Z,10.69
2023-02-12T10:39:21.629Z,11.06
2023-02-12T10:41:51.174Z,10.90
2023-02-12T10:44:18.761Z,9.83
2023-02-12T10:46:46.143Z,10.66
2023-02-12T10:49:15.424Z,10.90
2023-02-12T10:51:55.096Z,10.24
2023-02-12T10:54:31.615Z,11.83
2023-02-12T10:56:59.967Z,9.51
2023-02-12T10:59:27.589Z,9.64
2023-02-12T11:01:55.138Z,11.12
2023-02-12T11:04:31.206Z,11.25
2023-02-12T11:07:06.445Z,9.59
2023-02-12T11:09:45.413Z,11.81
2023-02-12T11:12:20.402Z,10.77
2023-02-12T11:14:54.563Z,12.22
2023-02-12T11:17:37.779Z,12.17
2023-02-12T11:20:21.764Z,12.46
2023-02-12T11:23:01.511Z,12.86
2023-02-12T11:25:32.452Z,13.32
2023-02-12T11:28:17.147Z,13.12
2023-02-12T11:30:59.776Z,13.91
2023-02-12T11:33:35.109Z,13.03
2023-02-12T11:36:13.016Z,14.53
2023-02-12T11:38:54.836Z,13.46
2023-02-12T11:41:36.573Z,13.05
2023-02-12T11:44:19.830Z,14.53
2023-02-12T11:46:52.247Z,13.89
2023-02-12T11:49:30.735Z,13.41
2023-02-12T11:52:00.770Z,14.48
2023-02-12T11:54:31.329Z,14.94
2023-02-12T11:56:59.237Z,15.11
2023-02-12T11:59:38.917Z,15.30
2023-02-12T12:02:27.557Z,15.72
2023-02-12T12:05:11.489Z,15.33
2023-02-12T12:07:45.236Z,15.73
2023-02-12T12:10:22.074Z,16.03
2023-02-12T12:12:58.858Z,16.41
2023-02-12T12:15:49.960Z,15.75
2023-02-12T12:18:51.927Z,15.32
2023-02-12T12:21:47.131Z,14.08
2023-02-12T12:24:21.403Z,14.27
2023-02-12T12:27:00.338Z,15.41
2023-02-12T12:29:50.158Z,14.54
2023-02-12T12:32:21.133Z,15.23
2023-02-12T12:34:48.768Z,14.36
2023-02-12T12:37:41.837Z,13.16
2023-02-12T12:40:47.799Z,12.94
2023-02-12T12:43:21.156Z,13.92
2023-02-12T12:46:15.673Z,14.28
2023-02-12T12:49:03.460Z,15.10
2023-02-12T12:51:46.124Z,15.63
2023-02-12T12:54:27.033Z,16.34
2023-02-12T12:57:24.037Z,16.09
2023-02-12T13:00:06.726Z,16.57
2023-02-12T13:03:07.186Z,16.19
2023-02-12T13:06:00.853Z,16.51
2023-02-12T13:08:54.053Z,15.79
2023-02-12T13:11:30.157Z,16.07
2023-02-12T13:14:13.376Z,16.58
2023-02-12T13:16:47.467Z,17.08
2023-02-12T13:19:33.762Z,17.20
2023-02-12T13:22:31.020Z,17.27
2023-02-12T13:25:18.470Z,16.69
2023-02-12T13:27:49.080Z,16.76
2023-02-12T13:30:24.266Z,16.67
2023-02-12T13:33:25.634Z,17.39
2023-02-12T13:35:57.188Z,17.03
2023-02-12T13:38:33.634Z,16.66
2023-02-12T13:41:06.196Z,17.02
2023-02-12T13:43:43.280Z,16.50
2023-02-12T13:46:11.814Z,15.92
2023-02-12T13:49:15.340Z,16.01
2023-02-12T13:51:47.103Z,15.27
2023-02-12T13:54:20.929Z,15.57
2023-02-12T13:56:54.660Z,15.88
2023-02-12T13:59:32.454Z,14.67
2023-02-12T14:02:34.574Z,15.20
2023-02-12T14:05:17.157Z,15.20
2023-02-12T14:07:54.806Z,13.79
2023-02-12T14:10:33.333Z,14.50
2023-02-12T14:13:30.069Z,14.86
2023-02-12T14:15:59.887Z,15.16
2023-02-12T14:18:33.622Z,15.95
2023-02-12T14:21:14.388Z,16.16
2023-02-12T14:23:50.990Z,16.06
2023-02-12T14:26:25.235Z,15.41
2023-02-12T14:28:53.194Z,15.44
2023-02-12T14:31:23.975Z,15.18
2023-02-12T14:33:53.014Z,15.19
2023-02-12T14:36:33.786Z,15.21
2023-02-12T14:39:19.946Z,14.90
2023-02-12T14:41:49.361Z,15.35
2023-02-12T14:44:17.528Z,14.66
2023-02-12T14:46:58.680Z,14.77
2023-02-12T14:49:37.840Z,14.77
2023-02-12T14:52:16.224Z,15.65
2023-02-12T14:54:56.603Z,15.57
2023-02-12T14:57:42.947Z,15.85
2023-02-12T15:00:34.336Z,15.67
2023-02-12T15:03:04.862Z,15.00
2023-02-12T15:05:48.860Z,15.74
2023-02-12T15:08:35.565Z,15.75
2023-02-12T15:11:09.918Z,15.54
2023-02-12T15:14:02.260Z,15.67
2023-02-12T15:16:50.553Z,15.77
2023-02-12T15:19:21.537Z,14.91
2023-02-12T15:21:50.273Z,15.00
2023-02-12T15:24:26.576Z,15.48
2023-02-12T15:26:58.213Z,14.55
2023-02-12T15:29:30.310Z,13.33
2023-02-12T15:31:59.584Z,13.10
2023-02-12T15:34:28.894Z,14.32
2023-02-12T15:37:00.163Z,14.98
2023-02-12T15:39:28.948Z,15.25
2023-02-12T15:41:57.704Z,14.94
2023-02-12T15:44:31.208Z,14.57
2023-02-12T15:47:15.372Z,14.50
2023-02-12T15:49:43.774Z,14.51
2023-02-12T15:52:20.880Z,14.35
2023-02-12T15:54:51.421Z,14.59
2023-02-12T15:57:24.592Z,14.77
2023-02-12T15:59:56.040Z,14.61
2023-02-12T16:02:29.233Z,14.68
2023-02-12T16:04:59.022Z,14.69
2023-02-12T16:07:28.589Z,13.57
2023-02-12T16:09:57.978Z,14.33
2023-02-12T16:12:31.221Z,14.58
2023-02-12T16:15:00.980Z,14.27
2023-02-12T16:17:29.596Z,14.24
2023-02-12T16:20:00.221Z,14.38
2023-02-12T16:22:29.790Z,13.72
2023-02-12T16:24:58.592Z,13.23
2023-02-12T16:27:34.026Z,13.80
2023-02-12T16:30:06.172Z,12.42
2023-02-12T16:32:42.456Z,13.13
2023-02-12T16:35:13.468Z,11.07
2023-02-12T16:37:43.371Z,10.50
2023-02-12T16:40:11.823Z,12.25
2023-02-12T16:42:46.875Z,11.45
2023-02-12T16:45:28.180Z,11.40
2023-02-12T16:48:16.877Z,12.51
2023-02-12T16:50:46.714Z,10.43
2023-02-12T16:53:26.053Z,10.36
2023-02-12T16:55:56.175Z,11.36
2023-02-12T16:58:26.368Z,12.46
2023-02-12T17:00:55.415Z,9.67
2023-02-12T17:03:24.686Z,9.07
2023-02-12T17:05:53.480Z,8.62
2023-02-12T17:08:23.280Z,9.60
2023-02-12T17:10:51.887Z,10.74
2023-02-12T17:13:21.494Z,8.61
2023-02-12T17:15:51.499Z,8.17
2023-02-12T17:18:20.453Z,8.94
2023-02-12T17:21:10.463Z,6.70
2023-02-12T17:23:43.768Z,7.00
2023-02-12T17:26:12.972Z,6.83
2023-02-12T17:28:41.934Z,5.31
2023-02-12T17:31:11.154Z,7.75
2023-02-12T17:33:40.732Z,7.05
2023-02-12T17:36:10.942Z,7.82
2023-02-12T17:38:39.457Z,9.48
2023-02-12T17:41:11.432Z,6.65
2023-02-12T17:43:40.344Z,7.58
2023-02-12T17:46:10.052Z,8.32
2023-02-12T17:48:37.804Z,8.50
2023-02-12T17:51:05.847Z,8.30
2023-02-12T17:53:34.187Z,6.56
2023-02-12T17:56:02.773Z,6.42
2023-02-12T17:58:32.160Z,6.85
2023-02-12T18:01:06.488Z,5.36
2023-02-12T18:03:35.738Z,7.78
2023-02-12T18:06:04.716Z,9.09
2023-02-12T18:08:34.795Z,8.90
2023-02-12T18:11:08.089Z,8.24
2023-02-12T18:13:37.087Z,8.26
2023-02-12T18:16:09.671Z,6.66
2023-02-12T18:18:38.509Z,6.63
2023-02-12T18:21:08.093Z,7.21
2023-02-12T18:23:36.049Z,8.29
2023-02-12T18:26:15.809Z,8.49
2023-02-12T18:28:48.930Z,8.19
2023-02-12T18:31:21.524Z,7.68
2023-02-12T18:33:52.167Z,7.47
2023-02-12T18:36:21.601Z,6.79
2023-02-12T18:38:52.676Z,6.61
2023-02-12T18:41:22.525Z,6.26
2023-02-12T18:43:53.428Z,6.25
2023-02-12T18:46:23.027Z,5.88
2023-02-12T18:48:52.278Z,6.82
2023-02-12T18:51:22.990Z,8.16
2023-02-12T18:53:55.217Z,8.38
2023-02-12T18:56:28.752Z,7.76
2023-02-12T18:58:59.184Z,6.65
2023-02-12T19:01:28.703Z,5.96
2023-02-12T19:04:02.889Z,6.07
2023-02-12T19:06:34.482Z,5.00
2023-02-12T19:09:05.469Z,4.53
2023-02-12T19:11:37.279Z,4.09
2023-02-12T19:14:07.237Z,4.77
2023-02-12T19:16:37.143Z,3.82
2023-02-12T19:19:06.533Z,5.52
2023-02-12T19:21:36.935Z,3.46
2023-02-12T19:24:14.005Z,2.76
2023-02-12T19:26:44.865Z,3.46
2023-02-12T19:29:22.701Z,4.12
2023-02-12T19:31:52.145Z,4.48
2023-02-12T19:34:22.912Z,4.30
2023-02-12T19:36:53.103Z,4.57
2023-02-12T19:39:25.226Z,4.42
2023-02-12T19:41:58.761Z,4.38
2023-02-12T19:44:28.858Z,4.35
2023-02-12T19:46:58.405Z,4.47
2023-02-12T19:49:30.041Z,4.01
2023-02-12T19:52:00.791Z,3.63
2023-02-12T19:54:29.698Z,3.14
2023-02-12T19:56:58.758Z,3.21
2023-02-12T19:59:31.381Z,3.26
2023-02-12T20:02:00.639Z,3.39
2023-02-12T20:04:31.192Z,3.23
2023-02-12T20:07:00.342Z,3.24
2023-02-12T20:09:29.561Z,3.58
2023-02-12T20:11:59.753Z,4.92
2023-02-12T20:14:28.624Z,5.93
2023-02-12T20:16:59.319Z,6.12
2023-02-12T20:19:32.985Z,6.85
2023-02-12T20:22:04.345Z,5.42
2023-02-12T20:24:34.004Z,4.24
2023-02-12T20:27:04.304Z,5.50
2023-02-12T20:29:35.390Z,5.81
2023-02-12T20:32:04.333Z,5.33
2023-02-12T20:34:49.096Z,4.77
2023-02-12T20:37:26.060Z,4.39
2023-02-12T20:39:56.573Z,4.63
2023-02-12T20:42:27.861Z,4.76
2023-02-12T20:44:57.159Z,5.31
2023-02-12T20:47:28.542Z,5.26
2023-02-12T20:49:57.529Z,5.01
2023-02-12T20:52:26.580Z,6.18
2023-02-12T20:54:55.758Z,6.02
2023-02-12T20:57:25.626Z,7.37
2023-02-12T20:59:54.400Z,7.43
2023-02-12T21:02:23.255Z,6.84
2023-02-12T21:04:53.240Z,6.65
2023-02-12T21:07:21.701Z,6.34
2023-02-12T21:09:51.540Z,5.54
2023-02-12T21:12:29.978Z,4.58
2023-02-12T21:14:58.140Z,5.11
2023-02-12T21:17:28.355Z,5.75
2023-02-12T21:19:56.997Z,6.36
2023-02-12T21:22:25.682Z,6.50
2023-02-12T21:24:56.303Z,4.92
2023-02-12T21:27:24.947Z,4.00
2023-02-12T21:29:56.838Z,3.35
2023-02-12T21:32:25.597Z,3.60
2023-02-12T21:34:54.674Z,2.73
2023-02-12T21:37:24.697Z,3.77
2023-02-12T21:39:52.758Z,4.08
2023-02-12T21:42:22.130Z,4.28
2023-02-12T21:44:49.765Z,3.80
2023-02-12T21:47:17.334Z,4.92
2023-02-12T21:49:47.100Z,5.67
2023-02-12T21:52:15.272Z,5.45
2023-02-12T21:54:42.774Z,6.54
2023-02-12T21:57:13.880Z,6.52
2023-02-12T21:59:41.522Z,6.73
2023-02-12T22:02:09.270Z,6.01
2023-02-12T22:04:37.037Z,5.97
2023-02-12T22:07:04.827Z,6.41
2023-02-12T22:09:32.311Z,7.22
2023-02-12T22:12:00.010Z,6.77
2023-02-12T22:14:27.432Z,7.04
2023-02-12T22:16:54.879Z,6.55
2023-02-12T22:19:22.633Z,6.35
2023-02-12T22:21:51.795Z,5.68
2023-02-12T22:24:19.511Z,6.68
2023-02-12T22:26:47.576Z,7.09
2023-02-12T22:29:15.996Z,6.57
2023-02-12T22:31:45.198Z,6.39
2023-02-12T22:34:15.673Z,6.64
2023-02-12T22:36:44.895Z,6.25
2023-02-12T22:39:13.746Z,6.02
2023-02-12T22:41:44.378Z,6.46
2023-02-12T22:44:12.875Z,6.33
2023-02-12T22:46:41.821Z,6.26
2023-02-12T22:49:09.442Z,6.72
2023-02-12T22:51:39.012Z,6.79
2023-02-12T22:54:07.786Z,7.68
2023-02-12T22:56:35.191Z,6.42
2023-02-12T22:59:02.768Z,6.28
2023-02-12T23:01:31.325Z,6.50
2023-02-12T23:03:59.313Z,6.38
2023-02-12T23:06:29.347Z,6.05
2023-02-12T23:09:04.004Z,5.90
2023-02-12T23:11:32.788Z,6.05
2023-02-12T23:14:00.777Z,6.28
2023-02-12T23:16:28.210Z,6.54
2023-02-12T23:18:57.644Z,7.31
2023-02-12T23:21:26.684Z,6.85
2023-02-12T23:23:54.391Z,7.16
2023-02-12T23:26:22.360Z,7.28
2023-02-12T23:28:50.192Z,6.79
2023-02-12T23:31:17.897Z,7.31
2023-02-12T23:33:45.480Z,7.62
2023-02-12T23:36:13.201Z,7.45
2023-02-12T23:38:40.616Z,7.75
2023-02-12T23:41:08.021Z,7.76
2023-02-12T23:43:35.736Z,7.60
2023-02-12T23:46:04.032Z,7.49
2023-02-12T23:48:31.459Z,7.41
2023-02-12T23:50:59.416Z,7.91
2023-02-12T23:53:27.068Z,7.63
2023-02-12T23:55:54.457Z,7.68
2023-02-12T23:58:22.200Z,6.97
